Time;durP1;ratioP1;P1;durP2;ratioP2;P2;SDS_P1;SDS_P2;PMS_P1;PMS_P2;Temp;Humidity;BMP_temperature;BMP_pressure;BME280_temperature;BME280_humidity;BME280_pressure;Samples;Min_cycle;Max_cycle;Signal;HPM_P1;HPM_P2
2023/09/03 00:00:22;;;;;;;3.80;3.33;;;17.50;99.90;;;;;;6249779;28;20045;-78
2023/09/03 00:03:24;;;;;;;9.13;3.75;;;17.40;99.90;;;;;;6226117;28;20076;-78
2023/09/03 00:06:27;;;;;;;3.95;3.25;;;17.40;99.90;;;;;;6238052;28;20042;-76
2023/09/03 00:09:29;;;;;;;5.47;3.00;;;17.30;99.90;;;;;;6249827;28;20049;-79
2023/09/03 00:12:30;;;;;;;3.50;3.05;;;17.30;99.90;;;;;;6247526;28;20045;-79
2023/09/03 00:15:32;;;;;;;4.53;3.45;;;17.30;99.90;;;;;;6250890;28;20049;-78
2023/09/03 00:18:34;;;;;;;4.70;4.07;;;17.30;99.90;;;;;;6247301;28;20610;-78
2023/09/03 00:21:37;;;;;;;7.65;3.40;;;17.30;99.90;;;;;;6249611;28;20061;-79
2023/09/03 00:24:39;;;;;;;3.60;3.30;;;17.30;99.90;;;;;;6251266;28;20041;-79
2023/09/03 00:27:41;;;;;;;4.63;3.63;;;17.30;99.90;;;;;;6250079;28;20041;-77
2023/09/03 00:30:43;;;;;;;4.82;4.05;;;17.30;99.90;;;;;;6251005;28;20048;-79
2023/09/03 00:33:44;;;;;;;5.43;3.53;;;17.30;99.90;;;;;;6251332;28;20064;-79
2023/09/03 00:36:48;;;;;;;4.88;3.35;;;17.30;99.90;;;;;;6250195;28;20041;-77
2023/09/03 00:39:49;;;;;;;4.65;3.95;;;17.30;99.90;;;;;;6249825;28;20050;-77
2023/09/03 00:42:51;;;;;;;6.45;3.63;;;17.30;99.90;;;;;;6249481;28;20053;-78
2023/09/03 00:45:53;;;;;;;7.68;3.85;;;17.20;99.90;;;;;;6249780;28;20045;-79
2023/09/03 00:48:54;;;;;;;4.22;3.15;;;17.20;99.90;;;;;;6250189;28;20121;-79
2023/09/03 00:51:57;;;;;;;4.20;3.80;;;17.20;99.90;;;;;;6250008;28;20045;-78
2023/09/03 00:54:59;;;;;;;5.40;4.40;;;17.20;99.90;;;;;;6241623;28;20053;-79
2023/09/03 00:58:02;;;;;;;4.15;3.38;;;17.20;99.90;;;;;;6249299;28;20068;-78
2023/09/03 01:01:05;;;;;;;6.65;4.57;;;17.20;99.90;;;;;;6249455;28;20132;-79
2023/09/03 01:04:06;;;;;;;5.55;3.83;;;17.20;99.90;;;;;;6249254;28;20041;-78
2023/09/03 01:07:12;;;;;;;4.93;3.92;;;17.20;99.90;;;;;;6249949;28;20045;-77
2023/09/03 01:10:14;;;;;;;4.57;3.15;;;17.20;99.90;;;;;;6248760;28;20045;-79
2023/09/03 01:13:20;;;;;;;22.70;6.45;;;17.10;99.90;;;;;;6252095;28;20051;-78
2023/09/03 01:16:28;;;;;;;4.57;4.15;;;17.10;99.90;;;;;;6254714;28;20045;-78
2023/09/03 01:19:50;;;;;;;4.38;3.97;;;17.20;99.90;;;;;;6274872;28;20056;-78
2023/09/03 01:23:23;;;;;;;8.65;4.05;;;17.10;99.90;;;;;;6258667;28;20049;-78
2023/09/03 01:26:38;;;;;;;6.50;3.95;;;17.20;99.90;;;;;;6255414;28;20057;-79
2023/09/03 01:29:43;;;;;;;4.47;3.80;;;17.20;99.90;;;;;;6254237;28;20056;-78
2023/09/03 01:32:46;;;;;;;5.95;4.40;;;17.20;99.90;;;;;;6258167;28;20042;-76
2023/09/03 01:35:49;;;;;;;6.38;3.95;;;17.30;99.90;;;;;;6260719;28;20056;-76
2023/09/03 01:38:51;;;;;;;6.32;3.83;;;17.30;99.90;;;;;;6252628;28;20052;-78
2023/09/03 01:41:54;;;;;;;5.07;3.72;;;17.30;99.90;;;;;;6253338;28;20096;-76
2023/09/03 01:44:57;;;;;;;8.60;4.28;;;17.30;99.90;;;;;;6252826;28;20053;-78
2023/09/03 01:48:08;;;;;;;4.28;3.33;;;17.30;99.90;;;;;;6252949;28;20049;-77
2023/09/03 01:51:16;;;;;;;5.03;4.38;;;17.30;99.90;;;;;;6251804;28;20049;-77
2023/09/03 01:54:22;;;;;;;4.10;3.70;;;17.30;99.90;;;;;;6253090;28;20050;-77
2023/09/03 01:57:29;;;;;;;6.38;4.15;;;17.30;99.90;;;;;;6252525;28;20046;-75
2023/09/03 02:00:33;;;;;;;4.88;4.38;;;17.20;99.90;;;;;;6252132;28;20052;-79
2023/09/03 02:03:36;;;;;;;3.83;3.42;;;17.20;99.90;;;;;;6251190;28;20077;-78
2023/09/03 02:06:37;;;;;;;4.88;3.58;;;17.10;99.90;;;;;;6251339;28;20072;-79
2023/09/03 02:09:39;;;;;;;6.70;4.38;;;17.00;99.90;;;;;;6250712;28;20562;-77
2023/09/03 02:12:40;;;;;;;4.68;4.03;;;17.10;99.90;;;;;;6251788;28;20492;-77
2023/09/03 02:15:43;;;;;;;6.93;4.20;;;17.00;99.90;;;;;;6251543;28;20052;-79
2023/09/03 02:18:45;;;;;;;5.18;3.75;;;17.00;99.90;;;;;;6251413;28;20046;-78
2023/09/03 02:21:48;;;;;;;6.78;3.42;;;16.90;99.90;;;;;;6251688;28;20046;-79
2023/09/03 02:24:51;;;;;;;5.55;3.78;;;16.90;99.90;;;;;;6250959;28;20041;-77
2023/09/03 02:27:52;;;;;;;5.47;4.93;;;16.90;99.90;;;;;;6250457;28;20041;-79
2023/09/03 02:30:55;;;;;;;5.38;4.20;;;16.90;99.90;;;;;;6251916;28;20054;-78
2023/09/03 02:33:57;;;;;;;5.35;3.47;;;16.90;99.90;;;;;;6250593;28;20052;-77
2023/09/03 02:36:59;;;;;;;6.38;4.15;;;16.80;99.90;;;;;;6251719;28;20524;-77
2023/09/03 02:40:00;;;;;;;4.53;3.35;;;16.80;99.90;;;;;;6252490;28;20152;-76
2023/09/03 02:43:02;;;;;;;3.35;2.50;;;16.80;99.90;;;;;;6252086;28;20368;-77
2023/09/03 02:46:05;;;;;;;5.88;4.35;;;16.80;99.90;;;;;;6250566;28;20497;-78
2023/09/03 02:49:07;;;;;;;5.18;4.47;;;16.70;99.90;;;;;;6251211;28;20041;-77
2023/09/03 02:52:09;;;;;;;4.32;3.70;;;16.60;99.90;;;;;;6251656;28;20037;-77
2023/09/03 02:55:12;;;;;;;12.35;4.18;;;16.60;99.90;;;;;;6243651;28;20647;-77
2023/09/03 02:58:14;;;;;;;5.68;3.92;;;16.60;99.90;;;;;;6250515;28;20181;-78
2023/09/03 03:01:19;;;;;;;4.93;3.25;;;16.50;99.90;;;;;;6251102;28;20052;-77
2023/09/03 03:04:21;;;;;;;6.20;4.35;;;16.60;99.90;;;;;;6251276;28;20412;-78
2023/09/03 03:07:25;;;;;;;6.10;3.38;;;16.50;99.90;;;;;;6251752;28;20052;-76
2023/09/03 03:10:27;;;;;;;6.28;3.60;;;16.50;99.90;;;;;;6251309;28;20413;-79
2023/09/03 03:13:28;;;;;;;5.60;3.60;;;16.50;99.90;;;;;;6251306;28;20512;-78
2023/09/03 03:16:31;;;;;;;6.05;4.40;;;16.50;99.90;;;;;;6251248;28;20045;-77
2023/09/03 03:19:33;;;;;;;5.30;3.95;;;16.50;99.90;;;;;;6252350;28;20057;-78
2023/09/03 03:22:35;;;;;;;10.38;4.05;;;16.50;99.90;;;;;;6251134;28;20045;-78
2023/09/03 03:25:36;;;;;;;9.35;3.88;;;16.50;99.90;;;;;;6251490;28;20076;-78
2023/09/03 03:28:38;;;;;;;8.43;3.47;;;16.50;99.90;;;;;;6250967;28;20052;-78
2023/09/03 03:31:42;;;;;;;6.82;4.25;;;16.40;99.90;;;;;;6251524;28;20148;-78
2023/09/03 03:34:44;;;;;;;4.28;3.10;;;16.40;99.90;;;;;;6251511;28;20057;-78
2023/09/03 03:37:45;;;;;;;3.88;3.47;;;16.40;99.90;;;;;;6250588;28;20497;-78
2023/09/03 03:40:47;;;;;;;3.92;3.55;;;16.40;99.90;;;;;;6251683;28;20045;-78
2023/09/03 03:43:50;;;;;;;4.78;4.07;;;16.40;99.90;;;;;;6251516;28;20057;-78
2023/09/03 03:46:53;;;;;;;4.65;3.53;;;16.30;99.90;;;;;;6250873;28;20394;-78
2023/09/03 03:49:55;;;;;;;6.70;3.78;;;16.30;99.90;;;;;;6250540;28;20046;-78
2023/09/03 03:52:57;;;;;;;4.82;3.15;;;16.40;99.90;;;;;;6251171;28;20053;-78
2023/09/03 03:55:59;;;;;;;5.97;3.67;;;16.30;99.90;;;;;;6250497;28;20041;-78
2023/09/03 03:59:01;;;;;;;6.40;3.40;;;16.30;99.90;;;;;;6251141;28;20041;-78
2023/09/03 04:02:04;;;;;;;4.03;3.35;;;16.30;99.90;;;;;;6249932;28;20046;-78
2023/09/03 04:05:06;;;;;;;14.23;6.25;;;16.30;99.90;;;;;;6250400;28;20045;-77
2023/09/03 04:08:08;;;;;;;4.13;3.72;;;16.30;99.90;;;;;;6250224;28;20045;-78
2023/09/03 04:11:10;;;;;;;6.43;3.80;;;16.20;99.90;;;;;;6251061;28;20417;-77
2023/09/03 04:14:12;;;;;;;5.22;3.97;;;16.20;99.90;;;;;;6245749;28;20416;-77
2023/09/03 04:17:15;;;;;;;6.53;3.17;;;16.20;99.90;;;;;;6244771;28;20048;-77
2023/09/03 04:20:17;;;;;;;5.55;3.03;;;16.20;99.90;;;;;;6244401;28;20048;-76
2023/09/03 04:23:19;;;;;;;4.13;3.67;;;16.20;99.90;;;;;;6245472;28;20489;-76
2023/09/03 04:26:20;;;;;;;5.10;4.57;;;16.20;99.90;;;;;;6244822;28;20056;-77
2023/09/03 04:29:22;;;;;;;5.47;3.08;;;16.20;99.90;;;;;;6244427;28;20064;-76
2023/09/03 04:32:25;;;;;;;5.10;4.03;;;16.20;99.90;;;;;;6244893;28;20041;-76
2023/09/03 04:35:27;;;;;;;4.97;4.03;;;16.20;99.90;;;;;;6244612;28;20135;-77
2023/09/03 04:38:29;;;;;;;5.25;3.92;;;16.20;99.90;;;;;;6244564;28;20151;-77
2023/09/03 04:41:31;;;;;;;3.85;3.35;;;16.10;99.90;;;;;;6244787;28;20042;-77
2023/09/03 04:44:32;;;;;;;5.82;4.22;;;16.10;99.90;;;;;;6244616;28;20085;-77
2023/09/03 04:47:35;;;;;;;4.68;3.80;;;16.10;99.90;;;;;;6246044;28;20049;-76
2023/09/03 04:50:37;;;;;;;8.15;5.50;;;16.00;99.90;;;;;;6250271;28;20057;-76
2023/09/03 04:53:39;;;;;;;3.88;3.47;;;16.00;99.90;;;;;;6248971;28;20045;-77
2023/09/03 04:56:40;;;;;;;7.15;4.10;;;16.00;99.90;;;;;;6249630;28;20053;-76
2023/09/03 04:59:42;;;;;;;6.00;3.35;;;16.00;99.90;;;;;;6249157;28;20045;-76
2023/09/03 05:02:47;;;;;;;6.57;3.50;;;16.10;99.90;;;;;;6248722;28;20052;-77
2023/09/03 05:05:48;;;;;;;6.68;4.18;;;16.10;99.90;;;;;;6249409;28;20132;-77
2023/09/03 05:08:50;;;;;;;4.15;3.42;;;16.20;99.90;;;;;;6248406;28;20045;-77
2023/09/03 05:11:52;;;;;;;9.75;3.30;;;16.20;99.90;;;;;;6249084;28;20046;-77
2023/09/03 05:14:53;;;;;;;21.00;4.97;;;16.30;99.90;;;;;;6249431;28;20064;-77
2023/09/03 05:17:56;;;;;;;4.82;4.22;;;16.40;99.90;;;;;;6255781;28;20054;-76
2023/09/03 05:20:58;;;;;;;4.78;3.85;;;16.50;99.90;;;;;;6273603;28;20053;-76
2023/09/03 05:24:01;;;;;;;13.25;5.88;;;16.60;99.90;;;;;;6273804;28;20411;-77
2023/09/03 05:27:02;;;;;;;8.18;4.82;;;16.70;99.90;;;;;;6273234;28;20049;-76
2023/09/03 05:30:05;;;;;;;12.32;4.05;;;16.90;99.90;;;;;;6273160;28;20049;-76
2023/09/03 05:33:08;;;;;;;5.63;4.82;;;17.00;99.90;;;;;;6273569;28;20442;-77
2023/09/03 05:36:10;;;;;;;6.38;5.60;;;17.20;99.90;;;;;;6273471;28;20141;-77
2023/09/03 05:39:12;;;;;;;6.75;5.80;;;17.30;99.90;;;;;;6273491;28;20049;-77
2023/09/03 05:42:14;;;;;;;10.88;5.80;;;17.50;99.90;;;;;;6273244;28;20053;-77
2023/09/03 05:45:15;;;;;;;8.10;6.93;;;17.60;99.90;;;;;;6272656;28;20045;-77
2023/09/03 05:48:18;;;;;;;8.02;6.60;;;17.80;99.90;;;;;;6272416;28;20055;-77
2023/09/03 05:51:20;;;;;;;5.85;4.85;;;17.90;99.90;;;;;;6273701;28;20053;-77
2023/09/03 05:54:22;;;;;;;7.18;4.95;;;18.10;99.90;;;;;;6272850;28;20638;-77
2023/09/03 05:57:23;;;;;;;6.15;5.03;;;18.30;99.90;;;;;;6272615;28;20056;-76
2023/09/03 06:00:26;;;;;;;10.93;5.00;;;18.40;99.90;;;;;;6258489;28;20038;-76
2023/09/03 06:03:29;;;;;;;7.68;4.53;;;18.50;99.90;;;;;;6248254;28;20512;-77
2023/09/03 06:06:35;;;;;;;5.25;4.40;;;18.60;99.90;;;;;;6248036;28;20519;-77
2023/09/03 06:09:37;;;;;;;6.20;4.32;;;18.80;99.90;;;;;;6247744;28;20511;-77
2023/09/03 06:12:39;;;;;;;5.40;4.90;;;19.00;99.90;;;;;;6247873;28;20444;-77
2023/09/03 06:15:41;;;;;;;5.80;5.18;;;19.10;99.90;;;;;;6247271;28;20155;-77
2023/09/03 06:18:44;;;;;;;7.35;4.15;;;19.30;99.90;;;;;;6261095;28;20053;-76
2023/09/03 06:21:45;;;;;;;6.38;3.58;;;19.40;99.90;;;;;;6272551;28;20041;-77
2023/09/03 06:24:47;;;;;;;7.88;4.50;;;19.60;99.90;;;;;;6272239;28;20357;-77
2023/09/03 06:27:48;;;;;;;4.55;3.67;;;19.80;99.90;;;;;;6271859;28;20052;-77
2023/09/03 06:30:52;;;;;;;3.92;3.25;;;19.90;99.90;;;;;;6272201;28;20056;-77
2023/09/03 06:33:55;;;;;;;6.88;3.65;;;20.10;99.90;;;;;;6271519;28;20504;-77
2023/09/03 06:36:56;;;;;;;6.97;4.05;;;20.30;99.90;;;;;;6233872;28;20114;-77
2023/09/03 06:39:58;;;;;;;7.57;3.40;;;20.30;99.90;;;;;;6242449;28;20045;-77
2023/09/03 06:43:00;;;;;;;4.10;2.70;;;20.40;99.90;;;;;;6239734;28;20049;-74
2023/09/03 06:46:02;;;;;;;3.95;3.08;;;20.60;99.90;;;;;;6250194;28;20484;-78
2023/09/03 06:49:05;;;;;;;4.20;3.50;;;20.70;99.90;;;;;;6248047;28;20048;-78
2023/09/03 06:52:06;;;;;;;7.95;4.05;;;20.80;99.90;;;;;;6250409;28;20061;-78
2023/09/03 06:55:09;;;;;;;6.60;3.53;;;21.00;99.90;;;;;;6249151;28;20053;-77
2023/09/03 06:58:11;;;;;;;6.13;4.45;;;21.10;99.90;;;;;;6247872;28;20424;-78
2023/09/03 07:01:14;;;;;;;6.82;3.90;;;21.30;99.90;;;;;;6249587;28;20045;-78
2023/09/03 07:04:17;;;;;;;5.18;3.38;;;21.50;99.90;;;;;;6249272;28;20104;-78
2023/09/03 07:07:18;;;;;;;3.75;3.15;;;21.60;99.90;;;;;;6249696;28;20140;-77
2023/09/03 07:10:20;;;;;;;6.72;3.58;;;21.60;99.90;;;;;;6246660;28;20041;-76
2023/09/03 07:13:23;;;;;;;7.38;4.80;;;21.80;99.90;;;;;;6249746;28;20511;-78
2023/09/03 07:16:25;;;;;;;6.28;4.70;;;21.80;99.90;;;;;;6249155;28;20045;-77
2023/09/03 07:19:28;;;;;;;5.05;3.70;;;21.80;99.90;;;;;;6268129;28;20041;-77
2023/09/03 07:22:29;;;;;;;6.32;3.85;;;21.90;99.90;;;;;;6274811;28;20056;-78
2023/09/03 07:25:33;;;;;;;4.70;3.60;;;22.00;99.90;;;;;;6274364;28;20049;-78
2023/09/03 07:28:35;;;;;;;7.95;4.45;;;22.10;99.90;;;;;;6271803;28;20423;-76
2023/09/03 07:31:40;;;;;;;5.32;2.78;;;22.20;99.90;;;;;;6271284;28;20435;-77
2023/09/03 07:34:45;;;;;;;5.03;4.13;;;22.30;99.90;;;;;;6271409;28;20052;-78
2023/09/03 07:37:47;;;;;;;4.22;3.33;;;22.40;99.90;;;;;;6243065;28;20049;-77
2023/09/03 07:40:48;;;;;;;3.72;3.00;;;22.60;99.90;;;;;;6245135;28;20053;-77
2023/09/03 07:43:51;;;;;;;6.18;3.35;;;22.80;99.90;;;;;;6244605;28;20459;-77
2023/09/03 07:46:53;;;;;;;6.60;3.33;;;23.00;99.90;;;;;;6245951;28;20417;-77
2023/09/03 07:49:56;;;;;;;4.38;3.08;;;23.10;99.90;;;;;;6243923;28;20045;-77
2023/09/03 07:52:59;;;;;;;4.72;4.13;;;23.20;99.90;;;;;;6244723;28;20132;-77
2023/09/03 07:56:00;;;;;;;6.25;3.63;;;23.60;99.90;;;;;;6244958;28;20461;-77
2023/09/03 07:59:02;;;;;;;4.43;2.70;;;24.00;99.90;;;;;;6244810;28;20049;-76
2023/09/03 08:02:04;;;;;;;3.65;2.42;;;24.40;99.90;;;;;;6246435;28;20049;-74
2023/09/03 08:05:11;;;;;;;3.65;2.65;;;24.80;99.90;;;;;;6245130;28;20409;-76
2023/09/03 08:08:12;;;;;;;2.90;1.95;;;25.20;99.90;;;;;;6243317;28;20042;-75
2023/09/03 08:11:14;;;;;;;5.07;3.25;;;25.50;99.90;;;;;;6245038;28;20045;-75
2023/09/03 08:14:16;;;;;;;3.53;1.92;;;26.00;99.90;;;;;;6243720;28;20132;-76
2023/09/03 08:17:17;;;;;;;2.63;2.15;;;26.50;99.90;;;;;;6247029;28;20045;-75
2023/09/03 08:20:21;;;;;;;7.13;1.90;;;26.90;99.90;;;;;;6246363;28;20071;-76
2023/09/03 08:23:23;;;;;;;2.80;2.10;;;27.00;99.90;;;;;;6243031;28;20106;-76
2023/09/03 08:26:24;;;;;;;3.17;2.88;;;27.10;99.90;;;;;;6245129;28;20156;-75
2023/09/03 08:29:26;;;;;;;4.57;2.53;;;27.20;98.90;;;;;;6241317;28;20041;-76
2023/09/03 08:32:29;;;;;;;3.80;1.45;;;27.10;98.30;;;;;;6244425;28;20046;-76
2023/09/03 08:35:32;;;;;;;3.35;2.55;;;27.20;97.90;;;;;;6244397;28;20061;-76
2023/09/03 08:38:34;;;;;;;4.45;1.92;;;27.40;97.50;;;;;;6242027;28;20042;-76
2023/09/03 08:41:39;;;;;;;1.73;1.60;;;27.70;97.00;;;;;;6244052;28;20417;-77
2023/09/03 08:44:46;;;;;;;2.83;2.10;;;27.80;96.30;;;;;;6243345;28;20171;-76
2023/09/03 08:47:48;;;;;;;;;;;27.60;95.60;;;;;;6243835;28;20053;-75
2023/09/03 08:50:52;;;;;;;3.53;2.15;;;27.50;95.90;;;;;;6244545;28;19921;-75
2023/09/03 08:53:56;;;;;;;2.72;1.67;;;27.30;95.30;;;;;;6243721;28;20045;-75
2023/09/03 08:57:00;;;;;;;1.42;1.33;;;27.00;95.40;;;;;;6244423;28;20061;-75
2023/09/03 09:00:03;;;;;;;3.83;1.23;;;26.80;95.50;;;;;;6242564;28;20041;-75
2023/09/03 09:03:09;;;;;;;2.28;1.90;;;26.80;95.80;;;;;;6243517;28;20061;-75
2023/09/03 09:06:13;;;;;;;3.33;2.10;;;26.80;95.50;;;;;;6243012;28;20054;-75
2023/09/03 09:09:16;;;;;;;2.20;1.70;;;26.80;95.30;;;;;;6243124;28;20057;-76
2023/09/03 09:12:21;;;;;;;1.88;1.77;;;26.80;95.20;;;;;;6244570;28;20049;-75
2023/09/03 09:15:23;;;;;;;2.80;2.30;;;26.90;95.30;;;;;;6244002;28;20060;-75
2023/09/03 09:18:24;;;;;;;5.93;2.35;;;27.00;95.00;;;;;;6254697;28;20044;-75
2023/09/03 09:21:30;;;;;;;2.10;1.90;;;27.30;94.90;;;;;;6269669;28;20056;-75
2023/09/03 09:24:32;;;;;;;2.22;1.95;;;27.50;94.30;;;;;;6268978;28;20064;-75
2023/09/03 09:27:37;;;;;;;3.80;2.63;;;27.50;94.00;;;;;;6269217;28;20520;-75
2023/09/03 09:30:52;;;;;;;1.95;1.48;;;27.60;94.20;;;;;;6269233;28;20120;-76
2023/09/03 09:33:54;;;;;;;2.38;1.67;;;28.00;93.90;;;;;;6271339;28;20045;-75
2023/09/03 09:36:57;;;;;;;2.80;1.95;;;28.30;93.40;;;;;;6272801;28;20132;-75
2023/09/03 09:39:59;;;;;;;2.75;2.00;;;28.30;93.10;;;;;;6258186;28;20412;-75
2023/09/03 09:43:03;;;;;;;3.65;1.73;;;28.50;92.90;;;;;;6258684;28;20049;-75
2023/09/03 09:46:05;;;;;;;2.33;1.65;;;28.60;92.30;;;;;;6260133;28;20533;-76
2023/09/03 09:49:07;;;;;;;3.67;1.92;;;28.60;92.00;;;;;;6260426;28;20045;-75
2023/09/03 09:52:12;;;;;;;2.72;2.00;;;28.80;91.90;;;;;;6250171;28;20044;-75
2023/09/03 09:55:17;;;;;;;1.90;1.60;;;29.00;91.50;;;;;;6251558;28;20049;-75
2023/09/03 09:58:20;;;;;;;3.38;1.73;;;29.10;91.50;;;;;;6255259;28;20044;-75
2023/09/03 10:01:23;;;;;;;1.90;1.50;;;29.40;91.30;;;;;;6259257;28;20049;-75
2023/09/03 10:04:26;;;;;;;4.82;2.38;;;29.70;90.50;;;;;;6260775;28;20041;-75
2023/09/03 10:07:31;;;;;;;3.65;1.55;;;29.80;90.00;;;;;;6259113;28;20091;-75
2023/09/03 10:10:32;;;;;;;3.08;2.15;;;30.10;89.50;;;;;;6251840;28;20047;-75
2023/09/03 10:13:34;;;;;;;2.92;2.20;;;30.50;88.30;;;;;;6258166;28;20114;-75
2023/09/03 10:16:36;;;;;;;1.83;1.20;;;30.70;86.70;;;;;;6259531;28;20519;-75
2023/09/03 10:19:44;;;;;;;3.35;1.60;;;30.60;85.70;;;;;;6250695;28;20056;-75
2023/09/03 10:22:50;;;;;;;1.67;1.45;;;30.70;84.80;;;;;;6248621;28;20065;-77
2023/09/03 10:25:53;;;;;;;1.98;1.25;;;30.70;84.50;;;;;;6247938;28;20056;-76
2023/09/03 10:29:00;;;;;;;1.98;1.67;;;30.60;83.40;;;;;;6246864;28;20432;-75
2023/09/03 10:32:03;;;;;;;;;;;30.40;82.50;;;;;;6248201;28;20037;-75
2023/09/03 10:35:08;;;;;;;3.63;1.70;;;30.30;83.50;;;;;;6248108;28;19920;-75
2023/09/03 10:38:32;;;;;;;5.65;1.88;;;30.10;83.30;;;;;;6242374;28;20524;-76
2023/09/03 10:41:34;;;;;;;2.10;0.93;;;30.20;81.80;;;;;;6245896;28;20049;-76
2023/09/03 10:44:35;;;;;;;2.45;1.15;;;30.20;81.70;;;;;;6243147;28;20049;-75
2023/09/03 10:47:58;;;;;;;2.25;0.85;;;30.30;80.10;;;;;;6246566;28;20388;-76
2023/09/03 10:51:00;;;;;;;1.20;1.10;;;30.30;78.90;;;;;;6247379;28;20052;-75
2023/09/03 10:54:18;;;;;;;4.60;0.93;;;30.10;78.40;;;;;;6247025;28;20508;-76
2023/09/03 10:57:19;;;;;;;1.17;0.60;;;30.10;78.10;;;;;;6247754;28;20073;-76
2023/09/03 11:00:23;;;;;;;0.90;0.60;;;30.20;78.20;;;;;;6247044;28;20045;-76
2023/09/03 11:03:26;;;;;;;1.08;0.70;;;30.60;77.70;;;;;;6248210;28;20057;-77
2023/09/03 11:06:31;;;;;;;2.35;0.80;;;30.60;76.90;;;;;;6248005;28;20052;-77
2023/09/03 11:09:34;;;;;;;0.55;0.50;;;30.40;75.90;;;;;;6246386;28;20050;-77
2023/09/03 11:12:35;;;;;;;3.05;0.80;;;30.50;76.50;;;;;;6247509;28;20524;-77
2023/09/03 11:15:38;;;;;;;1.38;1.23;;;30.90;76.20;;;;;;6247136;28;20057;-76
2023/09/03 11:18:47;;;;;;;1.52;0.60;;;31.20;74.90;;;;;;6259808;28;20182;-76
2023/09/03 11:21:49;;;;;;;2.17;0.88;;;31.00;73.50;;;;;;6271897;28;20052;-76
2023/09/03 11:24:53;;;;;;;1.88;0.40;;;30.90;73.60;;;;;;6258007;28;20041;-75
2023/09/03 11:27:54;;;;;;;2.08;1.15;;;30.90;73.50;;;;;;6245543;28;20056;-75
2023/09/03 11:31:00;;;;;;;0.57;0.57;;;31.10;73.00;;;;;;6247096;28;20046;-75
2023/09/03 11:34:17;;;;;;;0.95;0.60;;;31.00;72.10;;;;;;6246446;28;20049;-75
2023/09/03 11:37:20;;;;;;;1.20;0.60;;;30.80;71.50;;;;;;6246475;28;20575;-76
2023/09/03 11:40:26;;;;;;;0.50;0.50;;;30.60;72.40;;;;;;6243441;28;20049;-77
2023/09/03 11:43:29;;;;;;;2.77;0.80;;;30.90;71.90;;;;;;6240502;28;20138;-76
2023/09/03 11:46:31;;;;;;;1.75;0.68;;;31.10;71.40;;;;;;6242318;28;20482;-76
2023/09/03 11:49:33;;;;;;;10.50;2.88;;;31.40;71.10;;;;;;6239543;28;20045;-76
2023/09/03 11:52:34;;;;;;;1.63;0.93;;;31.80;71.00;;;;;;6245873;28;20042;-76
2023/09/03 11:55:45;;;;;;;1.63;1.00;;;32.20;70.30;;;;;;6245852;28;20060;-76
2023/09/03 11:58:49;;;;;;;0.95;0.77;;;32.50;69.30;;;;;;6244646;28;20053;-76
2023/09/03 12:01:53;;;;;;;1.38;0.65;;;32.80;68.30;;;;;;6232240;28;20045;-76
2023/09/03 12:04:55;;;;;;;2.05;0.55;;;33.20;66.90;;;;;;6219431;28;20509;-76
2023/09/03 12:08:02;;;;;;;0.50;0.50;;;33.10;66.70;;;;;;6218867;28;20057;-76
2023/09/03 12:11:05;;;;;;;1.17;0.52;;;33.20;66.00;;;;;;6241083;28;20517;-76
2023/09/03 12:14:09;;;;;;;1.73;1.08;;;33.20;65.80;;;;;;6244199;28;20394;-76
2023/09/03 12:17:11;;;;;;;1.10;0.80;;;33.20;66.20;;;;;;6245232;28;20049;-76
2023/09/03 12:20:34;;;;;;;1.23;0.70;;;33.60;65.90;;;;;;6244559;28;20485;-76
2023/09/03 12:23:37;;;;;;;0.57;0.52;;;33.60;64.60;;;;;;6245279;28;20053;-76
2023/09/03 12:26:40;;;;;;;0.95;0.88;;;33.60;65.10;;;;;;6245774;28;20416;-76
2023/09/03 12:29:41;;;;;;;1.65;1.35;;;33.80;64.90;;;;;;6244377;28;20493;-76
2023/09/03 12:32:43;;;;;;;0.88;0.68;;;33.90;65.10;;;;;;6245568;28;20139;-76
2023/09/03 12:35:45;;;;;;;1.85;1.10;;;34.20;65.10;;;;;;6245472;28;20050;-76
2023/09/03 12:38:55;;;;;;;4.68;1.52;;;34.00;64.10;;;;;;6244689;28;20472;-76
2023/09/03 12:41:58;;;;;;;1.23;1.05;;;33.40;64.20;;;;;;6245140;28;20045;-76
2023/09/03 12:45:00;;;;;;;2.63;1.35;;;33.00;65.30;;;;;;6244255;28;20053;-76
2023/09/03 12:48:02;;;;;;;1.60;1.15;;;32.90;65.80;;;;;;6244540;28;20052;-76
2023/09/03 12:51:04;;;;;;;3.95;1.50;;;32.60;65.90;;;;;;6245823;28;20056;-76
2023/09/03 12:54:05;;;;;;;1.40;0.85;;;32.60;66.00;;;;;;6244677;28;20041;-76
2023/09/03 12:57:08;;;;;;;4.10;1.27;;;32.60;66.10;;;;;;6244628;28;20531;-75
2023/09/03 13:00:11;;;;;;;2.20;1.23;;;32.00;65.90;;;;;;6244158;28;20053;-76
2023/09/03 13:03:13;;;;;;;6.30;1.90;;;31.40;67.10;;;;;;6245297;28;20515;-76
2023/09/03 13:06:14;;;;;;;0.82;0.80;;;31.20;68.00;;;;;;6245018;28;20542;-76
2023/09/03 13:09:16;;;;;;;3.60;1.30;;;31.10;68.50;;;;;;6246617;28;20049;-76
2023/09/03 13:12:19;;;;;;;3.30;1.02;;;31.10;69.00;;;;;;6249409;28;20053;-77
2023/09/03 13:15:21;;;;;;;2.53;0.82;;;31.20;68.40;;;;;;6250144;28;20057;-77
2023/09/03 13:18:23;;;;;;;2.10;1.00;;;31.30;68.40;;;;;;6246410;28;20053;-77
2023/09/03 13:21:25;;;;;;;1.85;1.13;;;31.60;68.10;;;;;;6243085;28;20046;-77
2023/09/03 13:24:26;;;;;;;1.05;0.85;;;32.00;67.50;;;;;;6245843;28;20105;-77
2023/09/03 13:27:29;;;;;;;1.75;1.40;;;32.50;66.70;;;;;;6249048;28;20045;-76
2023/09/03 13:30:31;;;;;;;2.47;0.65;;;32.30;66.00;;;;;;6248063;28;20037;-76
2023/09/03 13:33:33;;;;;;;1.45;1.02;;;32.00;66.00;;;;;;6249269;28;20049;-77
2023/09/03 13:36:36;;;;;;;1.30;0.88;;;31.80;66.40;;;;;;6249739;28;20038;-77
2023/09/03 13:39:38;;;;;;;4.05;2.03;;;32.00;66.80;;;;;;6248039;28;20041;-76
2023/09/03 13:42:41;;;;;;;0.80;0.80;;;32.30;66.30;;;;;;6250337;28;20053;-78
2023/09/03 13:45:52;;;;;;;1.05;0.93;;;32.30;65.20;;;;;;6250690;28;20052;-76
2023/09/03 13:48:54;;;;;;;0.93;0.70;;;32.10;64.60;;;;;;6253793;28;20428;-77
2023/09/03 13:51:55;;;;;;;1.20;0.77;;;32.10;64.80;;;;;;6248853;28;20071;-77
2023/09/03 13:54:57;;;;;;;1.20;0.80;;;32.00;63.80;;;;;;6248978;28;20052;-77
2023/09/03 13:58:00;;;;;;;1.27;1.10;;;32.00;63.80;;;;;;6247569;28;20056;-77
2023/09/03 14:01:07;;;;;;;0.90;0.60;;;32.10;63.30;;;;;;6248809;28;20049;-77
2023/09/03 14:04:08;;;;;;;0.68;0.68;;;32.40;62.00;;;;;;6248638;28;20109;-77
2023/09/03 14:07:10;;;;;;;0.77;0.50;;;32.60;61.90;;;;;;6249387;28;20050;-77
2023/09/03 14:10:12;;;;;;;1.45;0.75;;;32.80;61.60;;;;;;6246947;28;20050;-77
2023/09/03 14:13:15;;;;;;;0.73;0.70;;;32.80;61.60;;;;;;6248075;28;20046;-76
2023/09/03 14:16:17;;;;;;;1.30;1.00;;;32.50;61.80;;;;;;6248562;28;20536;-77
2023/09/03 14:19:18;;;;;;;1.80;1.40;;;32.30;62.70;;;;;;6266734;28;20053;-76
2023/09/03 14:22:21;;;;;;;1.42;1.33;;;32.40;63.00;;;;;;6248957;28;20042;-76
2023/09/03 14:25:22;;;;;;;3.40;1.20;;;32.60;63.00;;;;;;6247676;28;20041;-76
2023/09/03 14:28:25;;;;;;;3.22;1.10;;;32.70;62.70;;;;;;6246943;28;20436;-76
2023/09/03 14:31:27;;;;;;;1.52;0.88;;;32.60;62.20;;;;;;6248483;28;20049;-76
2023/09/03 14:34:29;;;;;;;1.73;1.58;;;32.70;62.40;;;;;;6248057;28;20050;-76
2023/09/03 14:37:30;;;;;;;1.58;1.30;;;32.70;62.30;;;;;;6247189;28;20057;-76
2023/09/03 14:40:32;;;;;;;1.00;0.90;;;32.90;62.00;;;;;;6247291;28;20034;-76
2023/09/03 14:43:35;;;;;;;2.25;1.10;;;32.90;61.40;;;;;;6247539;28;20388;-77
2023/09/03 14:46:37;;;;;;;1.00;0.90;;;32.60;61.90;;;;;;6248830;28;20064;-78
2023/09/03 14:49:40;;;;;;;1.50;1.40;;;32.40;62.30;;;;;;6248533;28;20052;-78
2023/09/03 14:52:42;;;;;;;1.88;0.90;;;32.60;62.00;;;;;;6248511;28;20041;-77
2023/09/03 14:55:44;;;;;;;1.23;1.05;;;32.60;62.10;;;;;;6247028;28;20413;-77
2023/09/03 14:58:47;;;;;;;3.15;1.20;;;32.60;62.20;;;;;;6244568;28;20049;-77
2023/09/03 15:01:48;;;;;;;1.27;0.90;;;32.50;61.80;;;;;;6243611;28;20048;-77
2023/09/03 15:04:50;;;;;;;1.40;1.30;;;32.40;62.10;;;;;;6240990;28;20037;-77
2023/09/03 15:07:52;;;;;;;4.40;1.73;;;32.30;62.30;;;;;;6243014;28;20045;-77
2023/09/03 15:10:54;;;;;;;0.93;0.85;;;32.20;62.20;;;;;;6242039;28;20049;-77
2023/09/03 15:14:00;;;;;;;5.30;1.48;;;31.80;62.30;;;;;;6246991;28;20407;-77
2023/09/03 15:17:01;;;;;;;1.25;1.00;;;31.40;62.50;;;;;;6247351;28;20042;-77
2023/09/03 15:20:05;;;;;;;1.45;1.35;;;31.10;63.10;;;;;;6271393;28;20044;-77
2023/09/03 15:23:07;;;;;;;2.03;1.50;;;31.00;63.60;;;;;;6273202;28;20218;-77
2023/09/03 15:26:10;;;;;;;1.67;1.30;;;30.70;63.90;;;;;;6271451;28;20045;-77
2023/09/03 15:29:13;;;;;;;3.47;1.55;;;30.60;64.20;;;;;;6272247;28;20045;-78
2023/09/03 15:32:14;;;;;;;1.67;1.48;;;30.40;64.20;;;;;;6268549;28;20045;-78
2023/09/03 15:35:16;;;;;;;2.50;0.90;;;30.20;64.60;;;;;;6240423;28;20045;-78
2023/09/03 15:38:18;;;;;;;2.10;1.75;;;30.10;65.10;;;;;;6241183;28;20056;-77
2023/09/03 15:41:19;;;;;;;1.30;1.20;;;29.90;65.50;;;;;;6246400;28;20500;-78
2023/09/03 15:44:26;;;;;;;2.08;1.83;;;29.70;65.90;;;;;;6247941;28;20042;-77
2023/09/03 15:47:28;;;;;;;2.28;1.50;;;29.30;66.40;;;;;;6250983;28;20362;-77
2023/09/03 15:50:31;;;;;;;1.60;1.25;;;29.30;66.70;;;;;;6249828;28;20041;-77
2023/09/03 15:53:32;;;;;;;3.03;1.50;;;29.10;66.90;;;;;;6248814;28;20412;-77